createdAt,value
2018-02-18T00:00:47.910Z,55.60
2018-02-18T00:03:16.015Z,55.80
2018-02-18T00:05:44.124Z,55.70
2018-02-18T00:08:12.267Z,55.60
2018-02-18T00:10:40.479Z,55.60
2018-02-18T00:13:09.343Z,55.50
2018-02-18T00:15:38.219Z,55.60
2018-02-18T00:18:06.423Z,55.60
2018-02-18T00:20:34.553Z,55.70
2018-02-18T00:23:02.719Z,55.70
2018-02-18T00:25:30.845Z,55.60
2018-02-18T00:27:58.999Z,55.70
2018-02-18T00:30:27.239Z,55.60
2018-02-18T00:32:55.355Z,55.70
2018-02-18T00:35:24.237Z,56.40
2018-02-18T00:37:53.136Z,56.50
2018-02-18T00:40:22.013Z,56.50
2018-02-18T00:42:50.899Z,56.70
2018-02-18T00:45:19.796Z,56.40
2018-02-18T00:47:48.671Z,56.10
2018-02-18T00:50:16.815Z,56.10
2018-02-18T00:52:44.923Z,56.20
2018-02-18T00:55:13.802Z,56.30
2018-02-18T00:57:42.703Z,56.30
2018-02-18T01:00:11.718Z,56.00
2018-02-18T01:02:39.887Z,56.00
2018-02-18T01:05:08.027Z,55.80
2018-02-18T01:07:36.252Z,55.70
2018-02-18T01:10:04.377Z,55.80
2018-02-18T01:12:32.596Z,55.50
2018-02-18T01:15:00.752Z,55.50
2018-02-18T01:17:28.859Z,55.60
2018-02-18T01:19:56.987Z,55.50
2018-02-18T01:22:25.890Z,55.50
2018-02-18T01:24:54.072Z,55.40
2018-02-18T01:27:22.178Z,55.50
2018-02-18T01:29:50.402Z,55.50
2018-02-18T01:32:19.400Z,56.00
2018-02-18T01:34:47.516Z,56.00
2018-02-18T01:37:15.636Z,56.50
2018-02-18T01:39:44.631Z,56.10
2018-02-18T01:42:13.520Z,55.80
2018-02-18T01:44:42.420Z,56.00
2018-02-18T01:47:10.585Z,56.00
2018-02-18T01:49:39.492Z,55.70
2018-02-18T01:52:07.621Z,55.70
2018-02-18T01:54:37.232Z,55.60
2018-02-18T01:57:05.346Z,55.60
2018-02-18T01:59:33.512Z,55.80
2018-02-18T02:02:01.680Z,55.80
2018-02-18T02:04:29.847Z,55.90
2018-02-18T02:06:58.740Z,55.90
2018-02-18T02:09:26.912Z,55.90
2018-02-18T02:11:55.084Z,55.70
2018-02-18T02:14:23.260Z,56.00
2018-02-18T02:16:51.388Z,56.00
2018-02-18T02:19:19.499Z,55.80
2018-02-18T02:21:48.412Z,55.80
2018-02-18T02:24:16.540Z,56.40
2018-02-18T02:26:44.652Z,55.60
2018-02-18T02:29:12.782Z,55.70
2018-02-18T02:31:40.985Z,55.80
2018-02-18T02:34:09.862Z,56.80
2018-02-18T02:36:38.743Z,58.10
2018-02-18T02:39:07.756Z,57.90
2018-02-18T02:41:35.928Z,57.60
2018-02-18T02:44:04.824Z,57.00
2018-02-18T02:46:32.994Z,57.10
2018-02-18T02:49:01.873Z,56.80
2018-02-18T02:51:30.780Z,56.50
2018-02-18T02:53:58.895Z,56.50
2018-02-18T02:56:27.017Z,56.40
2018-02-18T02:58:55.916Z,56.30
2018-02-18T03:01:24.070Z,56.30
2018-02-18T03:03:52.972Z,56.20
2018-02-18T03:06:21.099Z,56.10
2018-02-18T03:08:49.276Z,56.20
2018-02-18T03:11:17.415Z,56.20
2018-02-18T03:13:45.585Z,56.40
2018-02-18T03:16:13.691Z,56.20
2018-02-18T03:18:41.818Z,56.20
2018-02-18T03:21:09.943Z,56.40
2018-02-18T03:23:38.076Z,56.60
2018-02-18T03:26:06.219Z,56.90
2018-02-18T03:28:35.231Z,57.10
2018-02-18T03:31:04.207Z,57.70
2018-02-18T03:33:32.340Z,57.70
2018-02-18T03:36:00.479Z,57.70
2018-02-18T03:38:28.599Z,57.30
2018-02-18T03:40:56.745Z,56.90
2018-02-18T03:43:24.846Z,56.70
2018-02-18T03:45:53.743Z,57.00
2018-02-18T03:48:22.624Z,56.60
2018-02-18T03:50:50.818Z,56.60
2018-02-18T03:53:18.995Z,56.50
2018-02-18T03:55:47.119Z,56.40
2018-02-18T03:58:15.240Z,56.40
2018-02-18T04:00:43.375Z,56.30
2018-02-18T04:03:11.503Z,56.50
2018-02-18T04:05:39.611Z,56.90
2018-02-18T04:08:07.719Z,56.20
2018-02-18T04:10:35.893Z,56.30
2018-02-18T04:13:04.788Z,56.40
2018-02-18T04:15:32.963Z,56.40
2018-02-18T04:18:01.083Z,56.70
2018-02-18T04:20:29.228Z,57.00
2018-02-18T04:22:57.356Z,56.90
2018-02-18T04:25:26.250Z,57.10
2018-02-18T04:27:54.370Z,57.10
2018-02-18T04:30:22.506Z,57.80
2018-02-18T04:32:50.683Z,57.30
2018-02-18T04:35:18.815Z,57.20
2018-02-18T04:37:46.944Z,57.20
2018-02-18T04:40:15.195Z,57.40
2018-02-18T04:42:44.124Z,57.50
2018-02-18T04:45:12.267Z,57.50
2018-02-18T04:47:40.378Z,57.60
2018-02-18T04:50:08.526Z,57.30
2018-02-18T04:52:36.654Z,57.10
2018-02-18T04:55:04.832Z,57.10
2018-02-18T04:57:33.032Z,57.00
2018-02-18T05:00:01.156Z,57.30
2018-02-18T05:02:29.304Z,57.10
2018-02-18T05:04:57.424Z,57.50
2018-02-18T05:07:25.532Z,57.10
2018-02-18T05:09:53.665Z,57.00
2018-02-18T05:12:21.860Z,56.80
2018-02-18T05:14:50.747Z,56.90
2018-02-18T05:17:19.628Z,57.60
2018-02-18T05:19:48.523Z,57.40
2018-02-18T05:22:17.524Z,57.40
2018-02-18T05:24:46.408Z,57.80
2018-02-18T05:27:15.280Z,57.10
2018-02-18T05:29:44.203Z,57.80
2018-02-18T05:32:13.085Z,57.40
2018-02-18T05:34:41.196Z,57.40
2018-02-18T05:37:09.311Z,57.10
2018-02-18T05:39:38.232Z,56.90
2018-02-18T05:42:06.377Z,56.90
2018-02-18T05:44:35.272Z,57.70
2018-02-18T05:47:04.151Z,57.30
2018-02-18T05:49:33.038Z,57.60
2018-02-18T05:52:01.174Z,57.50
2018-02-18T05:54:29.283Z,57.00
2018-02-18T05:56:57.393Z,57.20
2018-02-18T05:59:25.527Z,57.40
2018-02-18T06:01:53.651Z,57.20
2018-02-18T06:04:21.773Z,57.80
2018-02-18T06:06:50.648Z,58.10
2018-02-18T06:09:18.768Z,57.40
2018-02-18T06:11:46.907Z,57.30
2018-02-18T06:14:15.804Z,57.80
2018-02-18T06:16:44.707Z,57.50
2018-02-18T06:19:13.595Z,58.30
2018-02-18T06:21:42.503Z,57.80
2018-02-18T06:24:10.651Z,57.80
2018-02-18T06:26:39.544Z,57.50
2018-02-18T06:29:08.421Z,57.60
2018-02-18T06:31:37.339Z,57.50
2018-02-18T06:34:05.492Z,57.50
2018-02-18T06:36:34.371Z,57.90
2018-02-18T06:39:03.277Z,58.50
2018-02-18T06:41:32.176Z,57.60
2018-02-18T06:44:00.307Z,57.60
2018-02-18T06:46:28.419Z,58.20
2018-02-18T06:48:56.543Z,58.10
2018-02-18T06:51:24.677Z,58.00
2018-02-18T06:53:52.835Z,57.80
2018-02-18T06:56:20.947Z,58.00
2018-02-18T06:58:49.087Z,58.50
2018-02-18T07:01:17.230Z,58.00
2018-02-18T07:03:45.423Z,57.90
2018-02-18T07:06:14.311Z,58.30
2018-02-18T07:08:43.194Z,58.70
2018-02-18T07:11:12.191Z,58.00
2018-02-18T07:13:41.079Z,58.00
2018-02-18T07:16:09.968Z,57.90
2018-02-18T07:18:38.975Z,57.90
2018-02-18T07:21:07.191Z,57.90
2018-02-18T07:23:35.315Z,57.70
2018-02-18T07:26:04.204Z,57.60
2018-02-18T07:28:32.383Z,57.60
2018-02-18T07:31:01.261Z,57.80
2018-02-18T07:33:30.271Z,58.10
2018-02-18T07:35:58.378Z,58.10
2018-02-18T07:38:26.503Z,58.00
2018-02-18T07:40:54.647Z,58.70
2018-02-18T07:43:22.872Z,58.10
2018-02-18T07:45:51.023Z,58.30
2018-02-18T07:48:19.967Z,58.70
2018-02-18T07:50:48.035Z,58.70
2018-02-18T07:53:16.158Z,58.90
2018-02-18T07:55:44.276Z,59.00
2018-02-18T07:58:12.425Z,59.60
2018-02-18T08:00:40.531Z,60.00
2018-02-18T08:03:08.712Z,59.50
2018-02-18T08:05:36.830Z,59.30
2018-02-18T08:08:04.956Z,59.10
2018-02-18T08:10:33.120Z,59.10
2018-02-18T08:13:01.267Z,59.20
2018-02-18T08:15:29.420Z,59.40
2018-02-18T08:17:57.577Z,59.30
2018-02-18T08:20:25.724Z,59.50
2018-02-18T08:22:53.930Z,59.50
2018-02-18T08:25:22.130Z,60.20
2018-02-18T08:27:50.252Z,61.00
2018-02-18T08:30:19.148Z,62.50
2018-02-18T08:32:48.064Z,62.20
2018-02-18T08:35:16.173Z,62.20
2018-02-18T08:37:44.306Z,62.60
2018-02-18T08:40:12.468Z,62.60
2018-02-18T08:42:41.354Z,63.60
2018-02-18T08:45:09.564Z,63.60
2018-02-18T08:47:37.701Z,64.60
2018-02-18T08:50:06.592Z,65.70
2018-02-18T08:52:35.464Z,65.70
2018-02-18T08:55:04.410Z,66.30
2018-02-18T08:57:32.508Z,65.60
2018-02-18T09:00:00.609Z,65.50
2018-02-18T09:02:28.788Z,64.90
2018-02-18T09:04:57.728Z,65.50
2018-02-18T09:07:25.864Z,65.40
2018-02-18T09:09:54.036Z,66.10
2018-02-18T09:12:22.156Z,65.90
2018-02-18T09:14:50.280Z,66.20
2018-02-18T09:17:18.450Z,66.50
2018-02-18T09:19:46.622Z,66.40
2018-02-18T09:22:14.792Z,66.70
2018-02-18T09:24:43.758Z,66.70
2018-02-18T09:27:11.876Z,66.70
2018-02-18T09:29:40.029Z,67.40
2018-02-18T09:32:09.020Z,66.70
2018-02-18T09:34:37.949Z,66.70
2018-02-18T09:37:06.056Z,66.70
2018-02-18T09:39:34.933Z,67.20
2018-02-18T09:42:03.071Z,67.30
2018-02-18T09:44:31.313Z,67.10
2018-02-18T09:47:00.208Z,67.10
2018-02-18T09:49:29.192Z,67.30
2018-02-18T09:51:58.212Z,67.20
2018-02-18T09:54:26.428Z,67.20
2018-02-18T09:56:54.566Z,68.30
2018-02-18T09:59:22.716Z,67.10
2018-02-18T10:01:51.609Z,67.30
2018-02-18T10:04:19.775Z,67.30
2018-02-18T10:06:48.644Z,67.10
2018-02-18T10:09:16.876Z,67.10
2018-02-18T10:11:44.991Z,67.10
2018-02-18T10:14:13.188Z,67.20
2018-02-18T10:16:41.315Z,67.40
2018-02-18T10:19:09.424Z,67.10
2018-02-18T10:21:38.302Z,67.20
2018-02-18T10:24:06.468Z,67.10
2018-02-18T10:26:34.804Z,67.50
2018-02-18T10:29:02.959Z,67.40
2018-02-18T10:31:31.091Z,67.70
2018-02-18T10:33:59.292Z,67.40
2018-02-18T10:36:27.459Z,67.40
2018-02-18T10:38:55.669Z,67.30
2018-02-18T10:41:23.773Z,67.40
2018-02-18T10:43:51.895Z,67.20
2018-02-18T10:46:20.003Z,67.30
2018-02-18T10:48:48.115Z,67.40
2018-02-18T10:51:17.041Z,67.20
2018-02-18T10:53:45.186Z,67.20
2018-02-18T10:56:14.159Z,67.30
2018-02-18T10:58:42.443Z,67.20
2018-02-18T11:01:11.347Z,66.90
2018-02-18T11:03:39.523Z,66.90
2018-02-18T11:06:07.633Z,66.80
2018-02-18T11:08:35.761Z,66.60
2018-02-18T11:11:04.660Z,67.30
2018-02-18T11:13:32.770Z,66.60
2018-02-18T11:16:00.925Z,66.50
2018-02-18T11:18:29.032Z,66.30
2018-02-18T11:20:57.155Z,66.50
2018-02-18T11:23:25.309Z,66.30
2018-02-18T11:25:54.207Z,66.40
2018-02-18T11:28:22.341Z,66.30
2018-02-18T11:30:51.970Z,66.40
2018-02-18T11:33:20.875Z,66.40
2018-02-18T11:35:49.047Z,66.40
2018-02-18T11:38:17.932Z,66.60
2018-02-18T11:40:46.802Z,67.10
2018-02-18T11:43:15.001Z,66.30
2018-02-18T11:45:43.882Z,66.20
2018-02-18T11:48:12.782Z,66.30
2018-02-18T11:50:41.722Z,66.10
2018-02-18T11:53:09.852Z,66.20
2018-02-18T11:55:38.735Z,66.20
2018-02-18T11:58:07.704Z,66.20
2018-02-18T12:00:35.818Z,66.20
2018-02-18T12:03:03.974Z,66.40
2018-02-18T12:05:32.150Z,66.40
2018-02-18T12:08:00.331Z,66.30
2018-02-18T12:10:28.432Z,66.30
2018-02-18T12:12:56.668Z,66.40
2018-02-18T12:15:25.584Z,66.20
2018-02-18T12:17:53.734Z,66.20
2018-02-18T12:20:22.628Z,66.20
2018-02-18T12:22:50.752Z,66.30
2018-02-18T12:25:19.000Z,66.30
2018-02-18T12:27:47.095Z,66.20
2018-02-18T12:30:15.254Z,66.20
2018-02-18T12:32:43.383Z,66.40
2018-02-18T12:35:12.280Z,66.30
2018-02-18T12:37:41.175Z,66.30
2018-02-18T12:40:09.340Z,66.30
2018-02-18T12:42:38.231Z,65.10
2018-02-18T12:45:07.228Z,65.70
2018-02-18T12:47:36.104Z,65.70
2018-02-18T12:50:05.015Z,66.00
2018-02-18T12:52:33.147Z,66.00
2018-02-18T12:55:02.924Z,66.30
2018-02-18T12:57:31.040Z,66.30
2018-02-18T12:59:59.232Z,66.30
2018-02-18T13:02:28.224Z,65.30
2018-02-18T13:04:57.139Z,65.40
2018-02-18T13:07:25.243Z,65.30
2018-02-18T13:09:53.356Z,65.60
2018-02-18T13:12:22.277Z,64.90
2018-02-18T13:14:50.395Z,64.90
2018-02-18T13:17:18.596Z,64.10
2018-02-18T13:19:47.483Z,64.80
2018-02-18T13:22:15.595Z,64.80
2018-02-18T13:24:43.835Z,65.40
2018-02-18T13:27:11.951Z,64.50
2018-02-18T13:29:40.060Z,64.60
2018-02-18T13:32:08.207Z,64.30
2018-02-18T13:34:36.363Z,64.80
2018-02-18T13:37:04.603Z,65.10
2018-02-18T13:39:32.791Z,63.60
2018-02-18T13:42:00.931Z,62.90
2018-02-18T13:44:29.846Z,64.30
2018-02-18T13:46:58.009Z,64.30
2018-02-18T13:49:26.889Z,63.50
2018-02-18T13:51:55.844Z,64.50
2018-02-18T13:54:23.948Z,64.50
2018-02-18T13:56:52.963Z,64.40
2018-02-18T13:59:21.131Z,64.40
2018-02-18T14:01:49.318Z,64.10
2018-02-18T14:04:17.439Z,63.50
2018-02-18T14:06:45.559Z,63.60
2018-02-18T14:09:13.689Z,63.60
2018-02-18T14:11:41.797Z,63.60
2018-02-18T14:14:10.679Z,63.00
2018-02-18T14:16:39.563Z,61.70
2018-02-18T14:19:08.497Z,61.70
2018-02-18T14:21:36.593Z,61.80
2018-02-18T14:24:04.741Z,62.30
2018-02-18T14:26:32.971Z,62.50
2018-02-18T14:29:01.975Z,61.60
2018-02-18T14:31:30.862Z,60.40
2018-02-18T14:33:59.743Z,62.00
2018-02-18T14:36:28.635Z,61.90
2018-02-18T14:38:57.570Z,62.10
2018-02-18T14:41:37.594Z,62.10
2018-02-18T14:44:17.550Z,62.00
2018-02-18T14:46:58.355Z,62.30
2018-02-18T14:52:42.841Z,59.30
2018-02-18T14:55:22.906Z,60.30
2018-02-18T14:57:51.052Z,60.90
2018-02-18T15:00:19.192Z,61.40
2018-02-18T15:02:47.360Z,60.70
2018-02-18T15:05:15.522Z,61.30
2018-02-18T15:07:44.414Z,60.70
2018-02-18T15:10:13.303Z,60.60
2018-02-18T15:12:41.472Z,60.70
2018-02-18T15:15:10.343Z,60.70
2018-02-18T15:17:38.557Z,60.70
2018-02-18T15:20:06.838Z,60.70
2018-02-18T15:22:34.952Z,61.40
2018-02-18T15:25:03.070Z,60.60
2018-02-18T15:27:31.970Z,61.50
2018-02-18T15:30:00.098Z,61.40
2018-02-18T15:32:28.220Z,60.70
2018-02-18T15:34:56.336Z,60.60
2018-02-18T15:37:24.492Z,61.00
2018-02-18T15:39:52.635Z,60.90
2018-02-18T15:42:20.895Z,60.60
2018-02-18T15:44:49.792Z,60.40
2018-02-18T15:47:17.972Z,60.40
2018-02-18T15:49:46.820Z,59.80
2018-02-18T15:52:14.956Z,59.80
2018-02-18T15:54:43.096Z,60.30
2018-02-18T15:57:12.006Z,59.80
2018-02-18T15:59:40.140Z,59.80
2018-02-18T16:02:09.015Z,60.70
2018-02-18T16:04:37.167Z,60.20
2018-02-18T16:07:05.310Z,60.50
2018-02-18T16:09:33.411Z,60.10
2018-02-18T16:12:01.540Z,60.10
2018-02-18T16:14:30.544Z,60.40
2018-02-18T16:16:58.711Z,60.50
2018-02-18T16:19:26.883Z,60.80
2018-02-18T16:21:55.047Z,60.20
2018-02-18T16:24:24.048Z,60.50
2018-02-18T16:26:52.955Z,60.20
2018-02-18T16:29:21.063Z,60.20
2018-02-18T16:31:49.163Z,60.40
2018-02-18T16:34:17.381Z,60.30
2018-02-18T16:36:45.520Z,61.10
2018-02-18T16:39:14.424Z,60.60
2018-02-18T16:41:43.291Z,59.90
2018-02-18T16:44:11.435Z,59.90
2018-02-18T16:46:39.952Z,60.10
2018-02-18T16:49:08.839Z,59.90
2018-02-18T16:51:37.725Z,60.30
2018-02-18T16:54:05.847Z,59.60
2018-02-18T16:56:34.435Z,59.90
2018-02-18T16:59:02.579Z,59.80
2018-02-18T17:01:31.471Z,59.90
2018-02-18T17:03:59.627Z,59.90
2018-02-18T17:06:28.552Z,59.90
2018-02-18T17:08:56.704Z,59.80
2018-02-18T17:11:25.595Z,59.80
2018-02-18T17:13:53.708Z,59.80
2018-02-18T17:16:21.951Z,59.70
2018-02-18T17:18:50.061Z,59.70
2018-02-18T17:21:18.171Z,59.50
2018-02-18T17:23:47.179Z,59.50
2018-02-18T17:26:15.409Z,59.50
2018-02-18T17:28:43.531Z,59.30
2018-02-18T17:31:11.647Z,59.50
2018-02-18T17:33:39.755Z,59.40
2018-02-18T17:36:08.699Z,59.50
2018-02-18T17:38:36.831Z,59.50
2018-02-18T17:41:04.955Z,59.50
2018-02-18T17:43:33.091Z,59.30
2018-02-18T17:46:01.211Z,59.30
2018-02-18T17:48:29.330Z,59.40
2018-02-18T17:50:57.479Z,59.30
2018-02-18T17:53:25.608Z,59.40
2018-02-18T17:55:53.745Z,59.40
2018-02-18T17:58:22.023Z,59.40
2018-02-18T18:00:50.150Z,59.40
2018-02-18T18:03:18.262Z,59.40
2018-02-18T18:05:46.431Z,59.40
2018-02-18T18:08:15.343Z,59.40
2018-02-18T18:10:43.471Z,59.40
2018-02-18T18:13:12.395Z,59.40
2018-02-18T18:15:40.558Z,59.40
2018-02-18T18:18:08.693Z,59.40
2018-02-18T18:20:36.907Z,59.30
2018-02-18T18:23:05.079Z,59.40
2018-02-18T18:25:33.231Z,59.30
2018-02-18T18:28:01.357Z,59.30
2018-02-18T18:30:29.498Z,59.50
2018-02-18T18:32:57.678Z,59.30
2018-02-18T18:35:25.843Z,59.30
2018-02-18T18:37:54.843Z,59.40
2018-02-18T18:40:22.967Z,59.30
2018-02-18T18:42:51.078Z,59.30
2018-02-18T18:45:19.251Z,59.40
2018-02-18T18:47:48.247Z,59.40
2018-02-18T18:50:16.359Z,59.40
2018-02-18T18:52:44.476Z,59.40
2018-02-18T18:55:13.354Z,59.30
2018-02-18T18:57:41.575Z,59.30
2018-02-18T19:00:09.675Z,59.40
2018-02-18T19:02:37.795Z,59.30
2018-02-18T19:05:05.953Z,59.20
2018-02-18T19:07:34.153Z,59.20
2018-02-18T19:10:02.283Z,59.10
2018-02-18T19:12:30.386Z,59.10
2018-02-18T19:14:59.292Z,59.10
2018-02-18T19:17:27.454Z,59.10
2018-02-18T19:19:55.628Z,59.10
2018-02-18T19:22:23.752Z,59.00
2018-02-18T19:24:51.859Z,59.00
2018-02-18T19:27:20.843Z,59.00
2018-02-18T19:29:49.767Z,59.10
2018-02-18T19:32:17.934Z,59.00
2018-02-18T19:34:46.072Z,59.00
2018-02-18T19:37:14.276Z,59.00
2018-02-18T19:39:42.406Z,59.00
2018-02-18T19:42:10.618Z,59.00
2018-02-18T19:44:39.506Z,59.00
2018-02-18T19:47:08.444Z,59.10
2018-02-18T19:49:36.597Z,59.10
2018-02-18T19:52:04.709Z,59.10
2018-02-18T19:54:32.824Z,59.10
2018-02-18T19:57:00.975Z,59.00
2018-02-18T19:59:29.850Z,59.00
2018-02-18T20:01:58.016Z,58.90
2018-02-18T20:04:26.132Z,59.60
2018-02-18T20:06:54.266Z,59.00
2018-02-18T20:09:22.385Z,58.80
2018-02-18T20:11:50.500Z,59.00
2018-02-18T20:14:18.728Z,58.90
2018-02-18T20:16:46.884Z,58.90
2018-02-18T20:19:15.780Z,59.00
2018-02-18T20:21:44.682Z,58.80
2018-02-18T20:24:12.850Z,58.90
2018-02-18T20:26:41.028Z,58.70
2018-02-18T20:29:09.905Z,58.80
2018-02-18T20:31:38.040Z,58.80
2018-02-18T20:34:06.200Z,58.90
2018-02-18T20:36:34.360Z,58.70
2018-02-18T20:39:02.468Z,58.70
2018-02-18T20:41:30.592Z,58.70
2018-02-18T20:43:58.748Z,58.70
2018-02-18T20:46:26.916Z,58.80
2018-02-18T20:48:55.060Z,58.70
2018-02-18T20:51:23.194Z,58.80
2018-02-18T20:53:51.315Z,58.70
2018-02-18T20:56:20.224Z,58.70
2018-02-18T20:58:49.154Z,58.70
2018-02-18T21:01:17.268Z,58.70
2018-02-18T21:03:45.467Z,58.70
2018-02-18T21:06:13.623Z,58.70
2018-02-18T21:08:42.595Z,58.70
2018-02-18T21:11:12.213Z,58.60
2018-02-18T21:13:40.340Z,58.50
2018-02-18T21:16:08.583Z,59.00
2018-02-18T21:18:36.733Z,58.50
2018-02-18T21:21:05.655Z,58.80
2018-02-18T21:23:33.778Z,58.80
2018-02-18T21:26:01.899Z,59.10
2018-02-18T21:28:30.025Z,59.20
2018-02-18T21:30:58.237Z,59.20
2018-02-18T21:33:26.414Z,59.10
2018-02-18T21:35:54.575Z,59.20
2018-02-18T21:38:23.578Z,59.20
2018-02-18T21:40:51.707Z,59.20
2018-02-18T21:43:19.829Z,59.20
2018-02-18T21:45:47.999Z,58.90
2018-02-18T21:48:16.145Z,58.80
2018-02-18T21:50:45.031Z,58.80
2018-02-18T21:53:13.261Z,58.80
2018-02-18T21:55:41.371Z,59.00
2018-02-18T21:58:09.584Z,58.60
2018-02-18T22:00:37.753Z,58.90
2018-02-18T22:03:05.881Z,58.60
2018-02-18T22:05:34.001Z,58.60
2018-02-18T22:08:02.195Z,58.70
2018-02-18T22:10:30.311Z,58.70
2018-02-18T22:12:58.527Z,58.80
2018-02-18T22:15:26.665Z,58.70
2018-02-18T22:17:54.859Z,58.90
2018-02-18T22:20:22.987Z,59.10
2018-02-18T22:22:51.194Z,59.30
2018-02-18T22:25:20.245Z,59.20
2018-02-18T22:27:48.392Z,59.20
2018-02-18T22:30:16.512Z,59.40
2018-02-18T22:32:44.634Z,59.30
2018-02-18T22:35:12.774Z,59.20
2018-02-18T22:37:41.712Z,59.20
2018-02-18T22:40:09.845Z,59.20
2018-02-18T22:42:38.752Z,59.30
2018-02-18T22:45:06.892Z,59.30
2018-02-18T22:47:35.092Z,59.30
2018-02-18T22:50:03.255Z,59.30
2018-02-18T22:52:32.156Z,59.40
2018-02-18T22:55:00.333Z,59.30
2018-02-18T22:57:28.460Z,59.00
2018-02-18T22:59:56.603Z,59.00
2018-02-18T23:02:24.772Z,58.90
2018-02-18T23:04:53.347Z,59.00
2018-02-18T23:07:21.512Z,58.90
2018-02-18T23:09:49.642Z,59.00
2018-02-18T23:12:17.776Z,59.20
2018-02-18T23:14:45.892Z,59.30
2018-02-18T23:17:14.776Z,59.30
2018-02-18T23:19:42.990Z,59.30
2018-02-18T23:22:11.120Z,59.30
2018-02-18T23:24:39.336Z,59.20
2018-02-18T23:27:07.514Z,59.00
2018-02-18T23:29:35.683Z,59.10
2018-02-18T23:32:03.812Z,59.50
2018-02-18T23:34:31.929Z,59.30
2018-02-18T23:37:00.106Z,59.40
2018-02-18T23:39:28.244Z,59.40
2018-02-18T23:41:57.137Z,59.60
2018-02-18T23:44:26.020Z,59.50
2018-02-18T23:46:54.226Z,59.50
2018-02-18T23:49:22.348Z,59.40
2018-02-18T23:51:50.474Z,59.30
2018-02-18T23:54:18.592Z,59.50
2018-02-18T23:56:46.720Z,59.30
2018-02-18T23:59:14.858Z,59.40
